sensor_id;sensor_type;location;lat;lon;timestamp;temperature;humidity
6948;DHT22;3513;47.664;9.162;2023-11-18T00:01:20;6.00;99.90
6948;DHT22;3513;47.664;9.162;2023-11-18T00:03:46;5.90;99.90
6948;DHT22;3513;47.664;9.162;2023-11-18T00:06:11;5.70;99.90
6948;DHT22;3513;47.664;9.162;2023-11-18T00:08:38;5.60;99.90
6948;DHT22;3513;47.664;9.162;2023-11-18T00:11:03;5.60;99.90
6948;DHT22;3513;47.664;9.162;2023-11-18T00:13:29;5.60;99.90
6948;DHT22;3513;47.664;9.162;2023-11-18T00:15:55;5.60;99.90
6948;DHT22;3513;47.664;9.162;2023-11-18T00:18:21;5.50;99.90
6948;DHT22;3513;47.664;9.162;2023-11-18T00:20:46;5.50;99.90
6948;DHT22;3513;47.664;9.162;2023-11-18T00:23:12;5.40;99.90
6948;DHT22;3513;47.664;9.162;2023-11-18T00:25:38;5.30;99.90
6948;DHT22;3513;47.664;9.162;2023-11-18T00:28:05;5.30;99.90
6948;DHT22;3513;47.664;9.162;2023-11-18T00:30:33;5.30;99.90
6948;DHT22;3513;47.664;9.162;2023-11-18T00:32:58;5.30;99.90
6948;DHT22;3513;47.664;9.162;2023-11-18T00:35:24;5.30;99.90
6948;DHT22;3513;47.664;9.162;2023-11-18T00:37:50;5.30;99.90
6948;DHT22;3513;47.664;9.162;2023-11-18T00:40:15;5.20;99.90
6948;DHT22;3513;47.664;9.162;2023-11-18T00:42:43;5.20;99.90
6948;DHT22;3513;47.664;9.162;2023-11-18T00:45:09;5.10;99.90
6948;DHT22;3513;47.664;9.162;2023-11-18T00:47:38;5.10;99.90
6948;DHT22;3513;47.664;9.162;2023-11-18T00:50:04;5.10;99.90
6948;DHT22;3513;47.664;9.162;2023-11-18T00:52:33;5.00;99.90
6948;DHT22;3513;47.664;9.162;2023-11-18T00:54:59;5.00;99.90
6948;DHT22;3513;47.664;9.162;2023-11-18T00:57:25;5.20;99.90
6948;DHT22;3513;47.664;9.162;2023-11-18T00:59:50;5.40;99.90
6948;DHT22;3513;47.664;9.162;2023-11-18T01:02:16;5.50;99.90
6948;DHT22;3513;47.664;9.162;2023-11-18T01:04:43;5.60;99.90
6948;DHT22;3513;47.664;9.162;2023-11-18T01:07:11;5.60;99.90
6948;DHT22;3513;47.664;9.162;2023-11-18T01:09:36;5.60;99.90
6948;DHT22;3513;47.664;9.162;2023-11-18T01:12:05;5.60;99.90
6948;DHT22;3513;47.664;9.162;2023-11-18T01:14:31;5.60;99.90
6948;DHT22;3513;47.664;9.162;2023-11-18T01:16:57;5.60;99.90
6948;DHT22;3513;47.664;9.162;2023-11-18T01:19:22;5.50;99.90
6948;DHT22;3513;47.664;9.162;2023-11-18T01:21:49;5.40;99.90
6948;DHT22;3513;47.664;9.162;2023-11-18T01:24:14;5.40;99.90
6948;DHT22;3513;47.664;9.162;2023-11-18T01:26:41;5.40;99.90
6948;DHT22;3513;47.664;9.162;2023-11-18T01:29:07;5.30;99.90
6948;DHT22;3513;47.664;9.162;2023-11-18T01:31:33;5.20;99.90
6948;DHT22;3513;47.664;9.162;2023-11-18T01:33:58;5.20;99.90
6948;DHT22;3513;47.664;9.162;2023-11-18T01:36:25;5.30;99.90
6948;DHT22;3513;47.664;9.162;2023-11-18T01:38:50;5.20;99.90
6948;DHT22;3513;47.664;9.162;2023-11-18T01:41:16;5.20;99.90
6948;DHT22;3513;47.664;9.162;2023-11-18T01:43:45;5.20;99.90
6948;DHT22;3513;47.664;9.162;2023-11-18T01:46:12;5.30;99.90
6948;DHT22;3513;47.664;9.162;2023-11-18T01:48:39;5.30;99.90
6948;DHT22;3513;47.664;9.162;2023-11-18T01:51:06;5.30;99.90
6948;DHT22;3513;47.664;9.162;2023-11-18T01:53:34;5.30;99.90
6948;DHT22;3513;47.664;9.162;2023-11-18T01:56:02;5.40;99.90
6948;DHT22;3513;47.664;9.162;2023-11-18T01:58:30;5.40;99.90
6948;DHT22;3513;47.664;9.162;2023-11-18T02:00:57;5.30;99.90
6948;DHT22;3513;47.664;9.162;2023-11-18T02:03:23;5.40;99.90
6948;DHT22;3513;47.664;9.162;2023-11-18T02:05:48;5.30;99.90
6948;DHT22;3513;47.664;9.162;2023-11-18T02:08:14;5.30;99.90
6948;DHT22;3513;47.664;9.162;2023-11-18T02:10:49;5.30;99.90
6948;DHT22;3513;47.664;9.162;2023-11-18T02:13:23;5.40;99.90
6948;DHT22;3513;47.664;9.162;2023-11-18T02:15:52;5.40;99.90
6948;DHT22;3513;47.664;9.162;2023-11-18T02:18:18;5.50;99.90
6948;DHT22;3513;47.664;9.162;2023-11-18T02:20:44;5.70;99.90
6948;DHT22;3513;47.664;9.162;2023-11-18T02:23:13;5.60;99.90
6948;DHT22;3513;47.664;9.162;2023-11-18T02:25:48;5.50;99.90
6948;DHT22;3513;47.664;9.162;2023-11-18T02:28:14;5.50;99.90
6948;DHT22;3513;47.664;9.162;2023-11-18T02:30:43;5.40;99.90
6948;DHT22;3513;47.664;9.162;2023-11-18T02:33:16;5.30;99.90
6948;DHT22;3513;47.664;9.162;2023-11-18T02:35:52;5.30;99.90
6948;DHT22;3513;47.664;9.162;2023-11-18T02:38:20;5.30;99.90
6948;DHT22;3513;47.664;9.162;2023-11-18T02:40:52;5.20;99.90
6948;DHT22;3513;47.664;9.162;2023-11-18T02:43:23;5.20;99.90
6948;DHT22;3513;47.664;9.162;2023-11-18T02:45:49;5.10;99.90
6948;DHT22;3513;47.664;9.162;2023-11-18T02:48:16;5.00;99.90
6948;DHT22;3513;47.664;9.162;2023-11-18T02:50:43;5.00;99.90
6948;DHT22;3513;47.664;9.162;2023-11-18T02:53:09;5.10;99.90
6948;DHT22;3513;47.664;9.162;2023-11-18T02:55:35;5.20;99.90
6948;DHT22;3513;47.664;9.162;2023-11-18T02:58:01;5.00;99.90
6948;DHT22;3513;47.664;9.162;2023-11-18T03:00:27;4.90;99.90
6948;DHT22;3513;47.664;9.162;2023-11-18T03:02:54;4.90;99.90
6948;DHT22;3513;47.664;9.162;2023-11-18T03:05:19;4.90;99.90
6948;DHT22;3513;47.664;9.162;2023-11-18T03:07:49;4.80;99.90
6948;DHT22;3513;47.664;9.162;2023-11-18T03:10:19;4.90;99.90
6948;DHT22;3513;47.664;9.162;2023-11-18T03:12:52;4.80;99.90
6948;DHT22;3513;47.664;9.162;2023-11-18T03:15:18;4.70;99.90
6948;DHT22;3513;47.664;9.162;2023-11-18T03:17:45;4.70;99.90
6948;DHT22;3513;47.664;9.162;2023-11-18T03:20:12;4.70;99.90
6948;DHT22;3513;47.664;9.162;2023-11-18T03:22:40;4.50;99.90
6948;DHT22;3513;47.664;9.162;2023-11-18T03:25:06;4.40;99.90
6948;DHT22;3513;47.664;9.162;2023-11-18T03:27:33;4.40;99.90
6948;DHT22;3513;47.664;9.162;2023-11-18T03:29:58;4.30;99.90
6948;DHT22;3513;47.664;9.162;2023-11-18T03:32:24;4.30;99.90
6948;DHT22;3513;47.664;9.162;2023-11-18T03:34:49;4.30;99.90
6948;DHT22;3513;47.664;9.162;2023-11-18T03:37:15;4.30;99.90
6948;DHT22;3513;47.664;9.162;2023-11-18T03:39:41;4.10;99.90
6948;DHT22;3513;47.664;9.162;2023-11-18T03:42:06;4.10;99.90
6948;DHT22;3513;47.664;9.162;2023-11-18T03:44:32;4.10;99.90
6948;DHT22;3513;47.664;9.162;2023-11-18T03:46:58;4.20;99.90
6948;DHT22;3513;47.664;9.162;2023-11-18T03:49:24;4.20;99.90
6948;DHT22;3513;47.664;9.162;2023-11-18T03:51:49;4.00;99.90
6948;DHT22;3513;47.664;9.162;2023-11-18T03:54:15;3.90;99.90
6948;DHT22;3513;47.664;9.162;2023-11-18T03:56:40;3.80;99.90
6948;DHT22;3513;47.664;9.162;2023-11-18T03:59:06;3.70;99.90
6948;DHT22;3513;47.664;9.162;2023-11-18T04:01:31;3.70;99.90
6948;DHT22;3513;47.664;9.162;2023-11-18T04:03:58;3.60;99.90
6948;DHT22;3513;47.664;9.162;2023-11-18T04:06:23;3.60;99.90
6948;DHT22;3513;47.664;9.162;2023-11-18T04:08:50;3.50;99.90
6948;DHT22;3513;47.664;9.162;2023-11-18T04:11:16;3.60;99.90
6948;DHT22;3513;47.664;9.162;2023-11-18T04:13:43;3.50;99.90
6948;DHT22;3513;47.664;9.162;2023-11-18T04:16:13;3.60;99.90
6948;DHT22;3513;47.664;9.162;2023-11-18T04:18:41;3.60;99.90
6948;DHT22;3513;47.664;9.162;2023-11-18T04:21:07;3.50;99.90
6948;DHT22;3513;47.664;9.162;2023-11-18T04:23:40;3.60;99.90
6948;DHT22;3513;47.664;9.162;2023-11-18T04:26:07;3.50;99.90
6948;DHT22;3513;47.664;9.162;2023-11-18T04:28:33;3.40;99.90
6948;DHT22;3513;47.664;9.162;2023-11-18T04:30:59;3.40;99.90
6948;DHT22;3513;47.664;9.162;2023-11-18T04:33:26;3.40;99.90
6948;DHT22;3513;47.664;9.162;2023-11-18T04:35:52;3.30;99.90
6948;DHT22;3513;47.664;9.162;2023-11-18T04:38:18;3.40;99.90
6948;DHT22;3513;47.664;9.162;2023-11-18T04:40:44;3.30;99.90
6948;DHT22;3513;47.664;9.162;2023-11-18T04:43:11;3.20;99.90
6948;DHT22;3513;47.664;9.162;2023-11-18T04:45:37;3.20;99.90
6948;DHT22;3513;47.664;9.162;2023-11-18T04:48:04;3.10;99.90
6948;DHT22;3513;47.664;9.162;2023-11-18T04:50:31;3.10;99.90
6948;DHT22;3513;47.664;9.162;2023-11-18T04:52:57;3.10;99.90
6948;DHT22;3513;47.664;9.162;2023-11-18T04:55:23;3.00;99.90
6948;DHT22;3513;47.664;9.162;2023-11-18T04:57:49;3.00;99.90
6948;DHT22;3513;47.664;9.162;2023-11-18T05:00:14;3.00;99.90
6948;DHT22;3513;47.664;9.162;2023-11-18T05:02:43;3.10;99.90
6948;DHT22;3513;47.664;9.162;2023-11-18T05:05:10;3.10;99.90
6948;DHT22;3513;47.664;9.162;2023-11-18T05:07:36;3.10;99.90
6948;DHT22;3513;47.664;9.162;2023-11-18T05:10:03;3.00;99.90
6948;DHT22;3513;47.664;9.162;2023-11-18T05:12:29;3.10;99.90
6948;DHT22;3513;47.664;9.162;2023-11-18T05:14:56;3.20;99.90
6948;DHT22;3513;47.664;9.162;2023-11-18T05:17:22;3.30;99.90
6948;DHT22;3513;47.664;9.162;2023-11-18T05:19:48;3.40;99.90
6948;DHT22;3513;47.664;9.162;2023-11-18T05:22:13;3.30;99.90
6948;DHT22;3513;47.664;9.162;2023-11-18T05:24:39;3.20;99.90
6948;DHT22;3513;47.664;9.162;2023-11-18T05:27:05;3.00;99.90
6948;DHT22;3513;47.664;9.162;2023-11-18T05:29:31;3.00;99.90
6948;DHT22;3513;47.664;9.162;2023-11-18T05:31:57;2.80;99.90
6948;DHT22;3513;47.664;9.162;2023-11-18T05:34:23;2.70;99.90
6948;DHT22;3513;47.664;9.162;2023-11-18T05:36:49;2.70;99.90
6948;DHT22;3513;47.664;9.162;2023-11-18T05:39:20;2.60;99.90
6948;DHT22;3513;47.664;9.162;2023-11-18T05:41:45;2.60;99.90
6948;DHT22;3513;47.664;9.162;2023-11-18T05:44:15;2.60;99.90
6948;DHT22;3513;47.664;9.162;2023-11-18T05:46:45;2.60;99.90
6948;DHT22;3513;47.664;9.162;2023-11-18T05:49:13;2.60;99.90
6948;DHT22;3513;47.664;9.162;2023-11-18T05:51:39;2.60;99.90
6948;DHT22;3513;47.664;9.162;2023-11-18T05:54:07;2.50;99.90
6948;DHT22;3513;47.664;9.162;2023-11-18T05:56:33;2.50;99.90
6948;DHT22;3513;47.664;9.162;2023-11-18T05:58:59;2.50;99.90
6948;DHT22;3513;47.664;9.162;2023-11-18T06:01:24;2.60;99.90
6948;DHT22;3513;47.664;9.162;2023-11-18T06:03:53;2.70;99.90
6948;DHT22;3513;47.664;9.162;2023-11-18T06:06:19;2.80;99.90
6948;DHT22;3513;47.664;9.162;2023-11-18T06:08:46;2.90;99.90
6948;DHT22;3513;47.664;9.162;2023-11-18T06:11:13;2.90;99.90
6948;DHT22;3513;47.664;9.162;2023-11-18T06:13:44;2.80;99.90
6948;DHT22;3513;47.664;9.162;2023-11-18T06:16:22;2.70;99.90
6948;DHT22;3513;47.664;9.162;2023-11-18T06:18:55;2.70;99.90
6948;DHT22;3513;47.664;9.162;2023-11-18T06:21:22;2.70;99.90
6948;DHT22;3513;47.664;9.162;2023-11-18T06:23:54;2.80;99.90
6948;DHT22;3513;47.664;9.162;2023-11-18T06:26:23;2.80;99.90
6948;DHT22;3513;47.664;9.162;2023-11-18T06:28:53;2.90;99.90
6948;DHT22;3513;47.664;9.162;2023-11-18T06:31:19;3.00;99.90
6948;DHT22;3513;47.664;9.162;2023-11-18T06:33:46;3.10;99.90
6948;DHT22;3513;47.664;9.162;2023-11-18T06:38:51;3.30;99.90
6948;DHT22;3513;47.664;9.162;2023-11-18T06:41:21;3.20;99.90
6948;DHT22;3513;47.664;9.162;2023-11-18T06:43:49;3.10;99.90
6948;DHT22;3513;47.664;9.162;2023-11-18T06:48:51;3.10;99.90
6948;DHT22;3513;47.664;9.162;2023-11-18T06:51:24;3.10;99.90
6948;DHT22;3513;47.664;9.162;2023-11-18T06:53:51;3.00;99.90
6948;DHT22;3513;47.664;9.162;2023-11-18T06:56:17;3.00;99.90
6948;DHT22;3513;47.664;9.162;2023-11-18T06:58:42;3.00;99.90
6948;DHT22;3513;47.664;9.162;2023-11-18T07:01:09;2.90;99.90
6948;DHT22;3513;47.664;9.162;2023-11-18T07:03:35;3.00;99.90
6948;DHT22;3513;47.664;9.162;2023-11-18T07:06:02;3.00;99.90
6948;DHT22;3513;47.664;9.162;2023-11-18T07:08:28;3.00;99.90
6948;DHT22;3513;47.664;9.162;2023-11-18T07:10:53;3.10;99.90
6948;DHT22;3513;47.664;9.162;2023-11-18T07:13:19;3.20;99.90
6948;DHT22;3513;47.664;9.162;2023-11-18T07:15:45;3.30;99.90
6948;DHT22;3513;47.664;9.162;2023-11-18T07:18:11;3.50;99.90
6948;DHT22;3513;47.664;9.162;2023-11-18T07:20:37;3.70;99.90
6948;DHT22;3513;47.664;9.162;2023-11-18T07:23:02;3.80;99.90
6948;DHT22;3513;47.664;9.162;2023-11-18T07:25:28;3.90;99.90
6948;DHT22;3513;47.664;9.162;2023-11-18T07:27:53;3.90;99.90
6948;DHT22;3513;47.664;9.162;2023-11-18T07:30:21;3.90;99.90
6948;DHT22;3513;47.664;9.162;2023-11-18T07:32:48;3.90;99.90
6948;DHT22;3513;47.664;9.162;2023-11-18T07:35:14;3.90;99.90
6948;DHT22;3513;47.664;9.162;2023-11-18T07:37:40;4.00;99.90
6948;DHT22;3513;47.664;9.162;2023-11-18T07:40:06;4.00;99.90
6948;DHT22;3513;47.664;9.162;2023-11-18T07:42:32;4.10;99.90
6948;DHT22;3513;47.664;9.162;2023-11-18T07:45:00;4.10;99.90
6948;DHT22;3513;47.664;9.162;2023-11-18T07:47:29;4.10;99.90
6948;DHT22;3513;47.664;9.162;2023-11-18T07:49:59;4.20;99.90
6948;DHT22;3513;47.664;9.162;2023-11-18T07:52:28;4.30;99.90
6948;DHT22;3513;47.664;9.162;2023-11-18T07:54:54;4.40;99.90
6948;DHT22;3513;47.664;9.162;2023-11-18T07:57:20;4.50;99.90
6948;DHT22;3513;47.664;9.162;2023-11-18T07:59:45;4.80;99.90
6948;DHT22;3513;47.664;9.162;2023-11-18T08:02:11;4.90;99.90
6948;DHT22;3513;47.664;9.162;2023-11-18T08:04:39;4.90;99.90
6948;DHT22;3513;47.664;9.162;2023-11-18T08:07:06;4.90;99.90
6948;DHT22;3513;47.664;9.162;2023-11-18T08:09:33;4.80;99.90
6948;DHT22;3513;47.664;9.162;2023-11-18T08:11:58;4.80;99.90
6948;DHT22;3513;47.664;9.162;2023-11-18T08:14:24;4.90;99.90
6948;DHT22;3513;47.664;9.162;2023-11-18T08:16:50;4.80;99.90
6948;DHT22;3513;47.664;9.162;2023-11-18T08:19:16;4.90;99.90
6948;DHT22;3513;47.664;9.162;2023-11-18T08:21:43;5.10;99.90
6948;DHT22;3513;47.664;9.162;2023-11-18T08:24:08;5.20;99.90
6948;DHT22;3513;47.664;9.162;2023-11-18T08:26:37;5.30;99.90
6948;DHT22;3513;47.664;9.162;2023-11-18T08:29:03;5.40;99.90
6948;DHT22;3513;47.664;9.162;2023-11-18T08:31:29;5.40;99.90
6948;DHT22;3513;47.664;9.162;2023-11-18T08:33:54;5.50;99.90
6948;DHT22;3513;47.664;9.162;2023-11-18T08:36:20;5.70;99.90
6948;DHT22;3513;47.664;9.162;2023-11-18T08:38:48;5.70;99.90
6948;DHT22;3513;47.664;9.162;2023-11-18T08:41:14;5.80;99.90
6948;DHT22;3513;47.664;9.162;2023-11-18T08:43:40;5.90;99.90
6948;DHT22;3513;47.664;9.162;2023-11-18T08:46:12;5.90;99.90
6948;DHT22;3513;47.664;9.162;2023-11-18T08:48:39;6.00;99.90
6948;DHT22;3513;47.664;9.162;2023-11-18T08:51:05;6.10;99.90
6948;DHT22;3513;47.664;9.162;2023-11-18T08:53:33;6.10;99.90
6948;DHT22;3513;47.664;9.162;2023-11-18T08:56:10;6.20;99.90
6948;DHT22;3513;47.664;9.162;2023-11-18T08:58:41;6.20;99.90
6948;DHT22;3513;47.664;9.162;2023-11-18T09:01:07;6.30;99.90
6948;DHT22;3513;47.664;9.162;2023-11-18T09:03:42;6.40;99.90
6948;DHT22;3513;47.664;9.162;2023-11-18T09:06:09;6.50;99.90
6948;DHT22;3513;47.664;9.162;2023-11-18T09:08:51;6.60;99.90
6948;DHT22;3513;47.664;9.162;2023-11-18T09:11:23;6.60;99.90
6948;DHT22;3513;47.664;9.162;2023-11-18T09:13:51;6.70;99.90
6948;DHT22;3513;47.664;9.162;2023-11-18T09:16:23;6.70;99.90
6948;DHT22;3513;47.664;9.162;2023-11-18T09:18:51;6.80;99.90
6948;DHT22;3513;47.664;9.162;2023-11-18T09:21:17;6.80;99.90
6948;DHT22;3513;47.664;9.162;2023-11-18T09:23:50;6.90;99.90
6948;DHT22;3513;47.664;9.162;2023-11-18T09:26:16;7.00;99.90
6948;DHT22;3513;47.664;9.162;2023-11-18T09:28:42;7.10;99.90
6948;DHT22;3513;47.664;9.162;2023-11-18T09:31:10;7.20;99.90
6948;DHT22;3513;47.664;9.162;2023-11-18T09:33:38;7.30;99.90
6948;DHT22;3513;47.664;9.162;2023-11-18T09:36:08;7.40;99.90
6948;DHT22;3513;47.664;9.162;2023-11-18T09:38:40;7.50;99.90
6948;DHT22;3513;47.664;9.162;2023-11-18T09:41:07;7.60;99.90
6948;DHT22;3513;47.664;9.162;2023-11-18T09:43:37;7.60;99.90
6948;DHT22;3513;47.664;9.162;2023-11-18T09:46:27;7.70;99.90
6948;DHT22;3513;47.664;9.162;2023-11-18T09:49:17;7.80;99.90
6948;DHT22;3513;47.664;9.162;2023-11-18T09:51:51;8.00;99.90
6948;DHT22;3513;47.664;9.162;2023-11-18T09:57:39;8.20;99.90
6948;DHT22;3513;47.664;9.162;2023-11-18T10:00:07;8.30;99.90
6948;DHT22;3513;47.664;9.162;2023-11-18T10:02:52;8.40;99.90
6948;DHT22;3513;47.664;9.162;2023-11-18T10:05:19;8.70;99.90
6948;DHT22;3513;47.664;9.162;2023-11-18T10:07:51;8.50;99.90
6948;DHT22;3513;47.664;9.162;2023-11-18T10:10:17;8.60;99.90
6948;DHT22;3513;47.664;9.162;2023-11-18T10:12:47;8.60;99.90
6948;DHT22;3513;47.664;9.162;2023-11-18T10:15:18;8.70;99.90
6948;DHT22;3513;47.664;9.162;2023-11-18T10:17:45;8.80;99.90
6948;DHT22;3513;47.664;9.162;2023-11-18T10:20:22;8.80;99.90
6948;DHT22;3513;47.664;9.162;2023-11-18T10:23:06;8.80;99.90
6948;DHT22;3513;47.664;9.162;2023-11-18T10:25:35;8.90;99.90
6948;DHT22;3513;47.664;9.162;2023-11-18T10:28:01;8.90;99.90
6948;DHT22;3513;47.664;9.162;2023-11-18T10:30:27;9.00;99.90
6948;DHT22;3513;47.664;9.162;2023-11-18T10:33:00;9.00;99.90
6948;DHT22;3513;47.664;9.162;2023-11-18T10:35:32;9.00;99.90
6948;DHT22;3513;47.664;9.162;2023-11-18T10:38:01;9.10;99.90
6948;DHT22;3513;47.664;9.162;2023-11-18T10:40:31;9.00;99.90
6948;DHT22;3513;47.664;9.162;2023-11-18T10:43:00;9.00;99.90
6948;DHT22;3513;47.664;9.162;2023-11-18T10:45:26;8.90;99.90
6948;DHT22;3513;47.664;9.162;2023-11-18T10:47:54;8.90;99.90
6948;DHT22;3513;47.664;9.162;2023-11-18T10:50:21;8.90;99.90
6948;DHT22;3513;47.664;9.162;2023-11-18T10:52:48;8.90;99.90
6948;DHT22;3513;47.664;9.162;2023-11-18T10:55:13;8.90;99.90
6948;DHT22;3513;47.664;9.162;2023-11-18T10:57:45;8.90;99.90
6948;DHT22;3513;47.664;9.162;2023-11-18T11:00:11;8.90;99.90
6948;DHT22;3513;47.664;9.162;2023-11-18T11:02:41;8.90;99.90
6948;DHT22;3513;47.664;9.162;2023-11-18T11:05:10;8.90;99.90
6948;DHT22;3513;47.664;9.162;2023-11-18T11:07:42;8.90;99.90
6948;DHT22;3513;47.664;9.162;2023-11-18T11:10:08;8.90;99.90
6948;DHT22;3513;47.664;9.162;2023-11-18T11:12:43;8.90;99.90
6948;DHT22;3513;47.664;9.162;2023-11-18T11:15:29;8.90;99.90
6948;DHT22;3513;47.664;9.162;2023-11-18T11:18:18;9.00;99.90
6948;DHT22;3513;47.664;9.162;2023-11-18T11:20:59;9.00;99.90
6948;DHT22;3513;47.664;9.162;2023-11-18T11:23:50;9.10;99.90
6948;DHT22;3513;47.664;9.162;2023-11-18T11:29:25;9.30;99.90
6948;DHT22;3513;47.664;9.162;2023-11-18T11:32:14;9.30;99.90
6948;DHT22;3513;47.664;9.162;2023-11-18T11:34:53;9.30;99.90
6948;DHT22;3513;47.664;9.162;2023-11-18T11:37:21;9.30;99.90
6948;DHT22;3513;47.664;9.162;2023-11-18T11:39:48;9.40;99.90
6948;DHT22;3513;47.664;9.162;2023-11-18T11:42:20;9.40;99.80
6948;DHT22;3513;47.664;9.162;2023-11-18T11:44:47;9.40;99.80
6948;DHT22;3513;47.664;9.162;2023-11-18T11:47:13;9.40;99.90
6948;DHT22;3513;47.664;9.162;2023-11-18T11:49:55;9.50;99.90
6948;DHT22;3513;47.664;9.162;2023-11-18T11:52:32;9.50;99.90
6948;DHT22;3513;47.664;9.162;2023-11-18T11:55:29;9.50;99.60
6948;DHT22;3513;47.664;9.162;2023-11-18T11:57:58;9.60;99.90
6948;DHT22;3513;47.664;9.162;2023-11-18T12:00:24;9.60;99.60
6948;DHT22;3513;47.664;9.162;2023-11-18T12:02:52;9.60;99.40
6948;DHT22;3513;47.664;9.162;2023-11-18T12:05:23;9.60;99.40
6948;DHT22;3513;47.664;9.162;2023-11-18T12:07:55;9.70;99.90
6948;DHT22;3513;47.664;9.162;2023-11-18T12:10:21;9.70;99.90
6948;DHT22;3513;47.664;9.162;2023-11-18T12:13:09;9.70;99.60
6948;DHT22;3513;47.664;9.162;2023-11-18T12:15:55;9.70;99.70
6948;DHT22;3513;47.664;9.162;2023-11-18T12:18:22;9.80;99.90
6948;DHT22;3513;47.664;9.162;2023-11-18T12:20:49;9.80;98.60
6948;DHT22;3513;47.664;9.162;2023-11-18T12:23:22;9.80;99.00
6948;DHT22;3513;47.664;9.162;2023-11-18T12:25:52;9.80;99.30
6948;DHT22;3513;47.664;9.162;2023-11-18T12:30:53;9.90;99.60
6948;DHT22;3513;47.664;9.162;2023-11-18T12:33:25;9.90;99.30
6948;DHT22;3513;47.664;9.162;2023-11-18T12:36:09;10.00;98.80
6948;DHT22;3513;47.664;9.162;2023-11-18T12:41:37;9.90;99.10
6948;DHT22;3513;47.664;9.162;2023-11-18T12:46:47;9.70;99.20
6948;DHT22;3513;47.664;9.162;2023-11-18T12:49:16;9.60;99.50
6948;DHT22;3513;47.664;9.162;2023-11-18T12:51:45;9.50;99.60
6948;DHT22;3513;47.664;9.162;2023-11-18T12:54:11;9.40;99.80
6948;DHT22;3513;47.664;9.162;2023-11-18T12:56:38;9.30;99.90
6948;DHT22;3513;47.664;9.162;2023-11-18T12:59:04;9.20;99.90
6948;DHT22;3513;47.664;9.162;2023-11-18T13:01:33;9.10;99.90
6948;DHT22;3513;47.664;9.162;2023-11-18T13:04:02;9.00;99.90
6948;DHT22;3513;47.664;9.162;2023-11-18T13:06:28;8.90;99.90
6948;DHT22;3513;47.664;9.162;2023-11-18T13:08:54;8.80;99.90
6948;DHT22;3513;47.664;9.162;2023-11-18T13:11:22;8.70;99.90
6948;DHT22;3513;47.664;9.162;2023-11-18T13:13:52;8.80;99.50
6948;DHT22;3513;47.664;9.162;2023-11-18T13:16:19;8.70;99.60
6948;DHT22;3513;47.664;9.162;2023-11-18T13:18:45;8.60;99.90
6948;DHT22;3513;47.664;9.162;2023-11-18T13:21:19;8.50;99.90
6948;DHT22;3513;47.664;9.162;2023-11-18T13:23:47;8.40;99.90
6948;DHT22;3513;47.664;9.162;2023-11-18T13:26:14;8.30;99.90
6948;DHT22;3513;47.664;9.162;2023-11-18T13:28:40;8.30;99.90
6948;DHT22;3513;47.664;9.162;2023-11-18T13:31:06;8.30;99.90
6948;DHT22;3513;47.664;9.162;2023-11-18T13:33:41;8.20;99.90
6948;DHT22;3513;47.664;9.162;2023-11-18T13:36:07;8.20;99.90
6948;DHT22;3513;47.664;9.162;2023-11-18T13:38:36;8.10;99.90
6948;DHT22;3513;47.664;9.162;2023-11-18T13:41:02;8.10;99.90
6948;DHT22;3513;47.664;9.162;2023-11-18T13:43:44;8.10;99.90
6948;DHT22;3513;47.664;9.162;2023-11-18T13:46:11;8.10;99.90
6948;DHT22;3513;47.664;9.162;2023-11-18T13:48:37;8.10;99.90
6948;DHT22;3513;47.664;9.162;2023-11-18T13:51:12;8.20;99.90
6948;DHT22;3513;47.664;9.162;2023-11-18T13:53:42;8.10;99.90
6948;DHT22;3513;47.664;9.162;2023-11-18T13:56:10;8.00;99.90
6948;DHT22;3513;47.664;9.162;2023-11-18T13:58:36;8.10;99.90
6948;DHT22;3513;47.664;9.162;2023-11-18T14:01:10;8.00;99.90
6948;DHT22;3513;47.664;9.162;2023-11-18T14:03:38;7.80;99.90
6948;DHT22;3513;47.664;9.162;2023-11-18T14:06:09;7.80;99.90
6948;DHT22;3513;47.664;9.162;2023-11-18T14:08:38;7.80;99.90
6948;DHT22;3513;47.664;9.162;2023-11-18T14:11:05;7.60;99.90
6948;DHT22;3513;47.664;9.162;2023-11-18T14:13:32;7.60;99.90
6948;DHT22;3513;47.664;9.162;2023-11-18T14:16:00;7.70;99.90
6948;DHT22;3513;47.664;9.162;2023-11-18T14:18:26;7.60;99.90
6948;DHT22;3513;47.664;9.162;2023-11-18T14:20:52;7.70;99.90
6948;DHT22;3513;47.664;9.162;2023-11-18T14:23:18;7.70;99.90
6948;DHT22;3513;47.664;9.162;2023-11-18T14:25:44;7.60;99.90
6948;DHT22;3513;47.664;9.162;2023-11-18T14:28:11;7.60;99.90
6948;DHT22;3513;47.664;9.162;2023-11-18T14:30:37;7.60;99.90
6948;DHT22;3513;47.664;9.162;2023-11-18T14:33:02;7.60;99.90
6948;DHT22;3513;47.664;9.162;2023-11-18T14:35:29;7.70;99.90
6948;DHT22;3513;47.664;9.162;2023-11-18T14:37:55;7.80;99.90
6948;DHT22;3513;47.664;9.162;2023-11-18T14:40:21;7.80;99.90
6948;DHT22;3513;47.664;9.162;2023-11-18T14:42:49;7.70;99.90
6948;DHT22;3513;47.664;9.162;2023-11-18T14:45:16;7.60;99.90
6948;DHT22;3513;47.664;9.162;2023-11-18T14:47:43;7.70;99.90
6948;DHT22;3513;47.664;9.162;2023-11-18T14:50:22;7.70;99.90
6948;DHT22;3513;47.664;9.162;2023-11-18T14:52:50;7.60;99.90
6948;DHT22;3513;47.664;9.162;2023-11-18T14:55:17;7.60;99.90
6948;DHT22;3513;47.664;9.162;2023-11-18T14:57:44;7.60;99.90
6948;DHT22;3513;47.664;9.162;2023-11-18T15:00:11;7.60;99.90
6948;DHT22;3513;47.664;9.162;2023-11-18T15:03:03;7.60;99.90
6948;DHT22;3513;47.664;9.162;2023-11-18T15:05:29;7.60;99.90
6948;DHT22;3513;47.664;9.162;2023-11-18T15:07:57;7.60;99.90
6948;DHT22;3513;47.664;9.162;2023-11-18T15:10:25;7.70;99.90
6948;DHT22;3513;47.664;9.162;2023-11-18T15:12:54;7.60;99.90
6948;DHT22;3513;47.664;9.162;2023-11-18T15:15:20;7.70;99.90
6948;DHT22;3513;47.664;9.162;2023-11-18T15:17:47;7.70;99.90
6948;DHT22;3513;47.664;9.162;2023-11-18T15:20:16;7.70;99.90
6948;DHT22;3513;47.664;9.162;2023-11-18T15:22:44;7.70;99.90
6948;DHT22;3513;47.664;9.162;2023-11-18T15:25:10;7.70;99.90
6948;DHT22;3513;47.664;9.162;2023-11-18T15:27:41;7.60;99.90
6948;DHT22;3513;47.664;9.162;2023-11-18T15:30:08;7.60;99.90
6948;DHT22;3513;47.664;9.162;2023-11-18T15:32:41;7.60;99.90
6948;DHT22;3513;47.664;9.162;2023-11-18T15:35:08;7.60;99.90
6948;DHT22;3513;47.664;9.162;2023-11-18T15:37:35;7.60;99.90
6948;DHT22;3513;47.664;9.162;2023-11-18T15:40:01;7.60;99.90
6948;DHT22;3513;47.664;9.162;2023-11-18T15:42:38;7.60;99.90
6948;DHT22;3513;47.664;9.162;2023-11-18T15:45:08;7.60;99.90
6948;DHT22;3513;47.664;9.162;2023-11-18T15:47:38;7.60;99.90
6948;DHT22;3513;47.664;9.162;2023-11-18T15:50:05;7.60;99.90
6948;DHT22;3513;47.664;9.162;2023-11-18T15:52:32;7.60;99.90
6948;DHT22;3513;47.664;9.162;2023-11-18T15:55:02;7.50;99.90
6948;DHT22;3513;47.664;9.162;2023-11-18T15:57:36;7.40;99.90
6948;DHT22;3513;47.664;9.162;2023-11-18T16:00:02;7.40;99.90
6948;DHT22;3513;47.664;9.162;2023-11-18T16:02:32;7.40;99.90
6948;DHT22;3513;47.664;9.162;2023-11-18T16:04:57;7.40;99.90
6948;DHT22;3513;47.664;9.162;2023-11-18T16:07:23;7.40;99.90
6948;DHT22;3513;47.664;9.162;2023-11-18T16:09:50;7.50;99.90
6948;DHT22;3513;47.664;9.162;2023-11-18T16:12:16;7.40;99.90
6948;DHT22;3513;47.664;9.162;2023-11-18T16:14:41;7.40;99.90
6948;DHT22;3513;47.664;9.162;2023-11-18T16:17:07;7.40;99.90
6948;DHT22;3513;47.664;9.162;2023-11-18T16:19:34;7.40;99.90
6948;DHT22;3513;47.664;9.162;2023-11-18T16:22:00;7.40;99.90
6948;DHT22;3513;47.664;9.162;2023-11-18T16:24:26;7.40;99.90
6948;DHT22;3513;47.664;9.162;2023-11-18T16:26:51;7.40;99.90
6948;DHT22;3513;47.664;9.162;2023-11-18T16:29:17;7.40;99.90
6948;DHT22;3513;47.664;9.162;2023-11-18T16:31:44;7.40;99.90
6948;DHT22;3513;47.664;9.162;2023-11-18T16:34:10;7.40;99.90
6948;DHT22;3513;47.664;9.162;2023-11-18T16:36:35;7.40;99.90
6948;DHT22;3513;47.664;9.162;2023-11-18T16:39:05;7.30;99.90
6948;DHT22;3513;47.664;9.162;2023-11-18T16:41:32;7.30;99.90
6948;DHT22;3513;47.664;9.162;2023-11-18T16:43:58;7.30;99.90